Pyote, Texas
Current Conditions -  °F | °C
As of 2:53 AM on Friday 31 Oct 2014 (Local Time) from KINK Reporting Station
Clear Clear  
Wind Chill: 62°   Ceiling: Unl
Heat Index: 62°   Visibility: 10mi
Dew Point: 43°   Wind: 6mph
Humidity: 50%   Direction: 60°ENE
Pressure: 30.28"   Gusts: NA
Location:  31.53°N, 103.13°W
Report Text: KINK 310753Z AUTO 06005KT 10SM CLR 17/06 A3028 RMK AO2 SLP216 T01670061
Loading
Personal Weather Stations






























Interactive Weather Map
Tropical Storm Tracking
New forecast layout! Learn more

10-Day Weather Forecast

Advertisements
Track Severe Weather on mobile